Time;durP1;ratioP1;P1;durP2;ratioP2;P2;SDS_P1;SDS_P2;PMS_P1;PMS_P2;Temp;Humidity;BMP_temperature;BMP_pressure;BME280_temperature;BME280_humidity;BME280_pressure;Samples;Min_cycle;Max_cycle;Signal;HPM_P1;HPM_P2
2021/04/14 00:01:08;;;;;;;6.28;1.73;;;;;;;2.47;84.50;101923.34;3553913;40;20081;-46
2021/04/14 00:03:35;;;;;;;6.85;1.92;;;;;;;2.37;84.47;101914.16;3554062;40;20049;-49
2021/04/14 00:06:07;;;;;;;5.70;1.70;;;;;;;2.68;83.36;101922.50;3553618;40;20088;-47
2021/04/14 00:08:34;;;;;;;10.82;2.10;;;;;;;2.38;83.92;101917.56;3554096;40;20090;-46
2021/04/14 00:11:01;;;;;;;6.13;2.30;;;;;;;2.36;84.05;101919.06;3554078;40;20085;-48
2021/04/14 00:13:33;;;;;;;4.22;1.42;;;;;;;2.43;83.56;101909.56;3554138;40;20064;-47
2021/04/14 00:15:59;;;;;;;7.07;1.55;;;;;;;2.25;84.24;101919.13;3558652;40;20062;-51
2021/04/14 00:18:27;;;;;;;5.30;1.70;;;;;;;2.15;85.14;101925.88;3558611;40;20212;-48
2021/04/14 00:20:54;;;;;;;4.35;1.50;;;;;;;1.99;85.33;101919.59;3554643;40;20140;-51
2021/04/14 00:23:22;;;;;;;9.57;1.83;;;;;;;1.93;85.96;101918.22;3554061;40;20120;-49
2021/04/14 00:25:51;;;;;;;7.82;1.75;;;;;;;2.31;84.67;101916.19;3554177;40;20062;-49
2021/04/14 00:28:22;;;;;;;4.00;1.25;;;;;;;2.04;85.10;101919.97;3554235;40;20411;-48
2021/04/14 00:30:49;;;;;;;5.47;1.27;;;;;;;1.94;85.73;101915.84;3554082;40;20447;-52
2021/04/14 00:33:16;;;;;;;3.20;1.25;;;;;;;2.06;85.67;101918.44;3553638;40;20049;-50
2021/04/14 00:35:43;;;;;;;2.95;1.33;;;;;;;1.77;85.67;101911.06;3553558;40;20061;-48
2021/04/14 00:38:12;;;;;;;6.63;1.70;;;;;;;1.93;85.26;101905.59;3553929;40;20081;-46
2021/04/14 00:40:42;;;;;;;6.72;1.63;;;;;;;1.47;86.80;101907.81;3553749;40;20097;-50
2021/04/14 00:43:12;;;;;;;6.32;1.60;;;;;;;1.37;87.38;101917.91;3550040;40;20162;-46
2021/04/14 00:45:39;;;;;;;8.38;1.27;;;;;;;1.32;87.82;101914.13;3553768;40;20090;-49
2021/04/14 00:48:07;;;;;;;6.57;2.15;;;;;;;1.33;87.93;101913.38;3553723;40;20050;-52
2021/04/14 00:50:34;;;;;;;5.13;2.13;;;;;;;1.62;86.59;101908.19;3553460;40;20053;-48
2021/04/14 00:53:01;;;;;;;7.20;1.40;;;;;;;1.58;86.32;101916.28;3553149;40;20072;-49
2021/04/14 00:55:28;;;;;;;9.82;1.45;;;;;;;1.69;85.47;101914.59;3553497;40;20077;-49
2021/04/14 00:57:55;;;;;;;5.65;1.60;;;;;;;1.67;85.56;101914.50;3553285;40;20519;-50
2021/04/14 01:00:46;;;;;;;7.13;1.52;;;;;;;1.43;86.32;101912.47;3553621;40;20429;-49
2021/04/14 01:03:16;;;;;;;6.90;1.25;;;;;;;1.18;87.21;101917.16;3549911;40;20093;-52
2021/04/14 01:05:44;;;;;;;6.25;1.35;;;;;;;1.16;87.78;101913.66;3553335;40;20462;-47
2021/04/14 01:08:10;;;;;;;7.57;2.00;;;;;;;1.52;86.46;101914.09;3553797;40;20065;-48
2021/04/14 01:10:37;;;;;;;7.50;1.50;;;;;;;1.62;85.22;101915.78;3553557;40;20093;-47
2021/04/14 01:13:04;;;;;;;6.18;1.52;;;;;;;1.59;85.48;101922.22;3553278;40;20534;-49
2021/04/14 01:15:36;;;;;;;4.20;1.70;;;;;;;1.36;84.75;101917.81;3553417;40;20057;-47
2021/04/14 01:18:05;;;;;;;5.22;1.48;;;;;;;1.19;86.18;101917.28;3553687;40;20149;-52
2021/04/14 01:20:37;;;;;;;5.47;1.83;;;;;;;1.04;86.93;101912.59;3553313;40;20079;-47
2021/04/14 01:23:06;;;;;;;6.30;1.83;;;;;;;0.99;87.47;101913.09;3553350;40;20192;-47
2021/04/14 01:25:36;;;;;;;8.85;1.77;;;;;;;1.33;85.77;101907.44;3553214;40;20412;-50
2021/04/14 01:28:15;;;;;;;5.38;1.52;;;;;;;1.33;86.39;101907.44;3553645;40;20078;-49
2021/04/14 01:30:45;;;;;;;7.70;1.52;;;;;;;1.05;86.45;101904.28;3553319;40;20057;-47
2021/04/14 01:33:13;;;;;;;9.52;1.40;;;;;;;0.94;87.23;101900.88;3549684;40;20097;-47
2021/04/14 01:35:40;;;;;;;4.03;1.20;;;;;;;1.33;85.47;101905.78;3553296;40;20138;-50
2021/04/14 01:38:07;;;;;;;7.60;1.67;;;;;;;0.87;86.98;101896.94;3553197;40;20089;-50
2021/04/14 01:40:34;;;;;;;11.13;1.60;;;;;;;0.88;87.40;101902.88;3553599;40;20216;-52
2021/04/14 01:43:02;;;;;;;9.15;1.17;;;;;;;0.80;88.11;101904.75;3552824;40;20082;-49
2021/04/14 01:45:35;;;;;;;7.60;1.50;;;;;;;0.99;87.80;101899.63;3553413;40;20065;-46
2021/04/14 01:48:02;;;;;;;6.57;1.70;;;;;;;0.77;88.09;101890.25;3552942;40;20052;-48
2021/04/14 01:50:29;;;;;;;8.25;1.60;;;;;;;0.84;88.46;101895.81;3553175;40;20068;-48
2021/04/14 01:52:57;;;;;;;3.97;1.00;;;;;;;1.14;87.35;101893.31;3553081;40;20132;-49
2021/04/14 01:55:26;;;;;;;6.35;1.35;;;;;;;0.90;87.50;101899.72;3553130;40;20093;-48
2021/04/14 01:57:53;;;;;;;12.35;1.88;;;;;;;0.95;87.14;101898.47;3553093;40;20076;-48
2021/04/14 02:00:30;;;;;;;8.95;1.42;;;;;;;1.25;86.59;101896.75;3552975;40;20082;-47
2021/04/14 02:02:57;;;;;;;8.18;1.92;;;;;;;0.95;87.20;101895.94;3553025;40;20240;-47
2021/04/14 02:05:29;;;;;;;8.77;1.52;;;;;;;0.85;87.85;101897.59;3552750;40;20050;-46
2021/04/14 02:07:56;;;;;;;9.07;1.58;;;;;;;1.06;87.32;101899.34;3552884;40;20070;-46
2021/04/14 02:10:26;;;;;;;6.95;1.38;;;;;;;1.09;86.84;101893.69;3553054;40;20061;-47
2021/04/14 02:12:55;;;;;;;10.25;1.30;;;;;;;0.58;88.71;101889.44;3552372;40;20073;-47
2021/04/14 02:15:25;;;;;;;7.15;1.50;;;;;;;0.61;89.48;101889.72;3552969;40;20340;-46
2021/04/14 02:17:53;;;;;;;6.00;1.35;;;;;;;0.79;88.76;101895.44;3552993;40;20297;-47
2021/04/14 02:20:21;;;;;;;9.38;1.67;;;;;;;0.95;88.34;101898.47;3552771;40;20085;-49
2021/04/14 02:22:48;;;;;;;11.57;1.50;;;;;;;0.98;87.64;101901.25;3552673;40;20065;-46
2021/04/14 02:25:16;;;;;;;5.30;1.60;;;;;;;0.70;87.96;101895.53;3552831;40;20101;-46
2021/04/14 02:27:43;;;;;;;11.10;1.55;;;;;;;0.88;87.94;101896.22;3552832;40;20058;-46
2021/04/14 02:30:17;;;;;;;8.75;1.30;;;;;;;0.69;88.11;101897.91;3557907;40;20072;-50
2021/04/14 02:32:43;;;;;;;7.47;1.33;;;;;;;0.73;88.99;101890.75;3554608;40;20121;-47
2021/04/14 02:35:10;;;;;;;4.97;1.60;;;;;;;0.71;88.80;101894.78;3554601;40;20384;-47
2021/04/14 02:37:37;;;;;;;8.43;1.83;;;;;;;0.50;88.98;101891.31;3554433;40;20066;-48
2021/04/14 02:40:07;;;;;;;7.93;1.83;;;;;;;0.69;89.48;101895.41;3554222;40;20417;-50
2021/04/14 02:42:34;;;;;;;6.90;1.40;;;;;;;0.60;89.42;101880.41;3554097;40;20358;-51
2021/04/14 02:45:01;;;;;;;9.73;1.88;;;;;;;0.42;90.40;101888.91;3554312;40;20101;-50
2021/04/14 02:47:28;;;;;;;5.53;1.70;;;;;;;0.32;90.77;101889.75;3554507;40;20066;-47
2021/04/14 02:49:55;;;;;;;6.75;1.60;;;;;;;0.53;90.13;101887.31;3554449;40;20120;-46
2021/04/14 02:52:21;;;;;;;9.60;1.33;;;;;;;0.50;90.42;101892.94;3553932;40;20089;-49
2021/04/14 02:54:48;;;;;;;7.85;1.48;;;;;;;0.35;90.59;101889.13;3553780;40;20077;-50
2021/04/14 02:57:16;;;;;;;9.63;1.67;;;;;;;0.12;91.67;101894.72;3553567;40;20474;-47
2021/04/14 02:59:42;;;;;;;6.70;1.88;;;;;;;0.68;90.62;101891.13;3553858;40;20094;-46
2021/04/14 03:02:09;;;;;;;8.82;2.08;;;;;;;0.58;89.74;101894.50;3550432;40;20081;-48
2021/04/14 03:04:36;;;;;;;8.18;1.90;;;;;;;0.58;90.54;101889.44;3554401;40;20133;-49
2021/04/14 03:07:04;;;;;;;12.60;1.95;;;;;;;0.65;89.91;101889.25;3554293;40;20346;-46
2021/04/14 03:09:30;;;;;;;10.65;2.00;;;;;;;0.44;90.62;101883.25;3554384;40;20082;-51
2021/04/14 03:11:57;;;;;;;7.13;1.35;;;;;;;0.10;92.40;101884.50;3554131;40;20049;-46
2021/04/14 03:14:23;;;;;;;7.75;1.67;;;;;;;0.37;92.49;101882.56;3554120;40;20061;-47
2021/04/14 03:16:50;;;;;;;8.80;2.13;;;;;;;0.61;90.61;101884.69;3553916;40;20089;-49
2021/04/14 03:19:17;;;;;;;11.65;2.20;;;;;;;0.36;91.17;101880.81;3557987;40;20135;-52
2021/04/14 03:21:44;;;;;;;9.05;1.58;;;;;;;0.22;91.96;101882.16;3559148;40;20056;-51
2021/04/14 03:24:10;;;;;;;5.90;1.88;;;;;;;0.50;91.52;101886.28;3555606;40;20093;-49
2021/04/14 03:26:37;;;;;;;5.45;1.50;;;;;;;0.39;92.32;101888.66;3554518;40;20093;-54
2021/04/14 03:29:04;;;;;;;10.57;1.75;;;;;;;0.33;92.39;101881.47;3554073;40;20088;-49
2021/04/14 03:31:34;;;;;;;14.98;1.77;;;;;;;0.24;92.67;101880.66;3554184;40;20042;-50
2021/04/14 03:34:01;;;;;;;9.52;1.98;;;;;;;0.37;92.29;101886.00;3553660;40;20331;-48
2021/04/14 03:36:27;;;;;;;8.50;1.70;;;;;;;0.41;91.94;101888.00;3553960;40;20077;-48
2021/04/14 03:38:54;;;;;;;12.07;2.60;;;;;;;0.16;93.68;101882.50;3554089;40;20053;-47
2021/04/14 03:41:21;;;;;;;9.32;1.73;;;;;;;0.39;92.66;101878.56;3553736;40;20498;-47
2021/04/14 03:43:49;;;;;;;7.45;2.00;;;;;;;0.29;92.93;101874.38;3553920;40;20086;-46
2021/04/14 03:46:17;;;;;;;15.02;2.60;;;;;;;0.34;93.07;101874.78;3554223;40;20054;-48
2021/04/14 03:48:44;;;;;;;15.68;2.67;;;;;;;0.29;92.77;101876.03;3553858;40;20082;-49
2021/04/14 03:51:10;;;;;;;12.98;2.78;;;;;;;0.03;93.62;101877.16;3553888;40;20061;-46
2021/04/14 03:53:39;;;;;;;12.20;2.78;;;;;;;0.07;93.71;101881.72;3554073;40;20416;-46
2021/04/14 03:56:08;;;;;;;12.95;2.22;;;;;;;0.23;93.74;101878.88;3553786;40;20125;-48
2021/04/14 03:58:36;;;;;;;12.10;2.20;;;;;;;0.12;94.16;101883.00;3554016;40;20360;-51
2021/04/14 04:01:08;;;;;;;13.60;2.25;;;;;;;0.39;93.57;101881.09;3553110;40;20061;-46
2021/04/14 04:03:35;;;;;;;9.63;2.10;;;;;;;0.45;93.01;101879.09;3553731;40;20077;-50
2021/04/14 04:06:03;;;;;;;7.93;1.80;;;;;;;0.22;93.34;101884.66;3553829;40;20466;-50
2021/04/14 04:08:29;;;;;;;10.55;1.90;;;;;;;0.10;93.16;101886.16;3553943;40;20087;-46
2021/04/14 04:10:56;;;;;;;7.63;2.20;;;;;;;-0.09;94.81;101883.66;3553854;40;20055;-49
2021/04/14 04:13:28;;;;;;;7.50;1.80;;;;;;;0.36;93.69;101880.81;3553456;40;20382;-46
2021/04/14 04:15:55;;;;;;;10.68;1.67;;;;;;;0.17;94.08;101888.44;3553751;40;20085;-50
2021/04/14 04:18:21;;;;;;;12.13;2.03;;;;;;;0.33;94.03;101894.06;3554116;40;20449;-50
2021/04/14 04:20:48;;;;;;;11.13;2.00;;;;;;;0.38;93.34;101894.44;3553908;40;20053;-51
2021/04/14 04:23:15;;;;;;;13.82;2.47;;;;;;;0.09;94.94;101896.94;3553523;40;20054;-48
2021/04/14 04:25:42;;;;;;;14.77;2.53;;;;;;;-0.12;95.29;101901.91;3553923;40;20098;-47
2021/04/14 04:28:09;;;;;;;12.85;2.92;;;;;;;0.13;95.12;101899.00;3550219;40;20103;-49
2021/04/14 04:30:36;;;;;;;13.82;3.85;;;;;;;0.20;94.97;101909.72;3553618;40;20061;-50
2021/04/14 04:33:05;;;;;;;16.92;4.32;;;;;;;0.30;94.03;101910.53;3553875;40;20049;-49
2021/04/14 04:35:33;;;;;;;14.50;4.07;;;;;;;0.18;93.96;101912.84;3553736;40;20438;-46
2021/04/14 04:38:00;;;;;;;12.48;4.32;;;;;;;0.37;94.34;101915.31;3553513;40;20510;-49
2021/04/14 04:40:28;;;;;;;13.90;4.57;;;;;;;0.44;93.73;101918.50;3553715;40;20367;-48
2021/04/14 04:42:55;;;;;;;13.75;3.97;;;;;;;0.24;94.17;101914.28;3553848;40;20090;-46
2021/04/14 04:45:26;;;;;;;14.48;3.15;;;;;;;0.50;93.87;101916.50;3553593;40;20038;-44
2021/04/14 04:47:53;;;;;;;9.98;2.50;;;;;;;0.29;93.98;101912.16;3553357;40;20398;-48
2021/04/14 04:50:26;;;;;;;12.30;3.35;;;;;;;0.31;94.36;101925.78;3553597;40;20110;-48
2021/04/14 04:53:01;;;;;;;10.65;2.40;;;;;;;0.38;93.92;101928.06;3552405;40;20086;-45
2021/04/14 04:55:28;;;;;;;13.38;2.58;;;;;;;0.34;95.36;101930.19;3553630;40;20077;-48
2021/04/14 04:58:06;;;;;;;21.15;3.85;;;;;;;0.55;92.97;101928.63;3553944;40;20058;-45
2021/04/14 05:00:33;;;;;;;12.82;3.63;;;;;;;0.51;94.16;101930.03;3553793;40;20097;-44
2021/04/14 05:03:00;;;;;;;10.15;3.03;;;;;;;0.52;93.83;101929.25;3556983;40;20127;-46
2021/04/14 05:05:29;;;;;;;16.85;3.28;;;;;;;0.47;93.36;101928.00;3553454;40;20045;-48
2021/04/14 05:07:55;;;;;;;11.77;3.00;;;;;;;0.68;93.84;101933.97;3553415;40;20069;-47
2021/04/14 05:10:22;;;;;;;8.93;2.63;;;;;;;0.38;94.57;101934.75;3553591;40;20089;-46
2021/04/14 05:12:53;;;;;;;18.80;2.85;;;;;;;0.72;93.76;101934.34;3553770;40;20064;-45
2021/04/14 05:15:28;;;;;;;10.35;2.70;;;;;;;0.84;93.10;101926.97;3553455;40;20089;-49
2021/04/14 05:17:55;;;;;;;9.90;2.92;;;;;;;0.88;93.33;101940.69;3552923;40;20072;-45
2021/04/14 05:20:23;;;;;;;10.68;2.70;;;;;;;0.82;94.05;101937.66;3553220;40;20085;-47
2021/04/14 05:22:49;;;;;;;9.38;2.90;;;;;;;1.05;93.20;101927.88;3552277;40;20066;-44
2021/04/14 05:25:20;;;;;;;10.82;3.28;;;;;;;1.00;93.04;101934.16;3551746;40;20086;-44
2021/04/14 05:27:49;;;;;;;8.05;2.58;;;;;;;1.40;91.76;101940.88;3551571;40;20328;-45
2021/04/14 05:30:16;;;;;;;11.43;3.05;;;;;;;1.34;91.86;101945.44;3552901;40;20078;-47
2021/04/14 05:32:44;;;;;;;12.93;3.03;;;;;;;1.75;89.62;101935.28;3552915;40;20066;-47
2021/04/14 05:35:13;;;;;;;19.40;2.80;;;;;;;1.76;90.42;101945.53;3549787;40;20042;-47
2021/04/14 05:37:40;;;;;;;10.23;2.90;;;;;;;1.58;90.92;101944.03;3553482;40;20064;-44
2021/04/14 05:40:08;;;;;;;8.80;2.67;;;;;;;1.94;89.42;101950.28;3553575;40;20057;-46
2021/04/14 05:42:44;;;;;;;12.35;2.70;;;;;;;1.70;90.53;101955.13;3553160;40;20050;-47
2021/04/14 05:45:15;;;;;;;17.77;3.10;;;;;;;2.11;88.63;101954.19;3549249;40;20069;-47
2021/04/14 05:47:43;;;;;;;16.02;3.20;;;;;;;1.95;89.28;101952.06;3552633;40;20057;-48
2021/04/14 05:50:13;;;;;;;13.20;2.97;;;;;;;2.30;88.55;101954.88;3549365;40;20049;-45
2021/04/14 05:52:40;;;;;;;13.40;2.97;;;;;;;2.17;88.70;101954.66;3553050;40;20159;-48
2021/04/14 05:55:09;;;;;;;18.23;3.63;;;;;;;2.29;88.21;101959.03;3551180;40;20078;-49
2021/04/14 05:57:36;;;;;;;16.13;3.67;;;;;;;2.39;88.51;101962.28;3551137;40;20505;-47
2021/04/14 06:00:09;;;;;;;12.32;3.42;;;;;;;2.43;88.52;101959.25;3553255;40;20098;-48
2021/04/14 06:02:36;;;;;;;12.25;3.25;;;;;;;2.49;88.31;101968.19;3553579;40;20060;-48
2021/04/14 06:05:04;;;;;;;13.98;4.40;;;;;;;2.53;87.70;101976.91;3554865;40;20053;-44
2021/04/14 06:07:30;;;;;;;15.45;4.55;;;;;;;2.70;88.27;101973.19;3554533;40;20049;-48
2021/04/14 06:09:57;;;;;;;20.17;5.28;;;;;;;2.86;87.53;101968.53;3554783;40;20417;-46
2021/04/14 06:12:23;;;;;;;12.98;3.72;;;;;;;2.96;86.16;101970.13;3554419;40;20399;-46
2021/04/14 06:14:50;;;;;;;22.02;7.55;;;;;;;2.73;87.72;101971.78;3554533;40;20062;-44
2021/04/14 06:17:17;;;;;;;22.23;7.97;;;;;;;2.67;88.05;101970.41;3554772;40;20078;-47
2021/04/14 06:19:44;;;;;;;19.98;7.85;;;;;;;3.12;86.62;101969.66;3554379;40;20073;-47
2021/04/14 06:22:11;;;;;;;17.92;5.97;;;;;;;3.36;86.47;101970.63;3549315;40;20577;-49
2021/04/14 06:24:38;;;;;;;17.73;4.63;;;;;;;3.65;84.61;101977.84;3555821;40;20149;-47
2021/04/14 06:27:06;;;;;;;14.30;3.80;;;;;;;3.59;84.42;101975.75;3558537;40;20097;-51
2021/04/14 06:29:33;;;;;;;14.55;4.13;;;;;;;3.95;84.73;101972.50;3555468;40;20045;-48
2021/04/14 06:32:01;;;;;;;12.30;3.70;;;;;;;3.77;84.20;101972.03;3553301;40;20053;-44
2021/04/14 06:34:29;;;;;;;13.98;4.40;;;;;;;3.60;85.13;101979.16;3553951;40;20432;-47
2021/04/14 06:36:58;;;;;;;12.35;3.97;;;;;;;4.06;83.38;101979.22;3552826;40;20434;-47
2021/04/14 06:39:33;;;;;;;11.27;4.18;;;;;;;4.19;83.17;101978.47;3553382;40;20082;-47
2021/04/14 06:42:16;;;;;;;15.45;4.65;;;;;;;4.02;83.11;101978.88;3552533;40;20115;-44
2021/04/14 06:45:12;;;;;;;15.18;4.28;;;;;;;3.72;84.44;101977.53;3553711;40;20057;-43
2021/04/14 06:47:51;;;;;;;12.80;4.43;;;;;;;4.05;82.29;101976.59;3551828;40;20062;-43
2021/04/14 06:50:25;;;;;;;12.57;5.10;;;;;;;4.17;81.87;101977.47;3553306;40;20042;-47
2021/04/14 06:53:16;;;;;;;13.18;4.93;;;;;;;4.61;80.82;101977.22;3553094;40;20374;-45
2021/04/14 06:55:50;;;;;;;17.58;4.88;;;;;;;4.79;80.14;101980.16;3553246;40;20061;-45
2021/04/14 06:58:21;;;;;;;;;;;;;;;4.90;79.19;101974.19;3553802;40;20050;-44
2021/04/14 07:01:00;;;;;;;13.00;4.15;;;;;;;5.22;79.45;101976.38;3552834;40;19937;-45
2021/04/14 07:03:42;;;;;;;11.20;3.72;;;;;;;5.14;76.69;101976.66;3557268;40;20598;-45
2021/04/14 07:06:13;;;;;;;16.77;4.45;;;;;;;5.32;77.06;101985.50;3552888;40;20098;-43
2021/04/14 07:09:27;;;;;;;17.17;4.93;;;;;;;5.21;76.77;101979.69;3553390;40;20162;-44
2021/04/14 07:11:55;;;;;;;14.93;4.20;;;;;;;5.60;75.59;101975.53;3552866;40;20042;-47
2021/04/14 07:14:24;;;;;;;11.32;4.03;;;;;;;5.67;74.52;101980.22;3551961;40;20053;-46
2021/04/14 07:17:13;;;;;;;12.80;4.85;;;;;;;5.60;74.63;101981.50;3553844;40;20304;-46
2021/04/14 07:20:05;;;;;;;13.35;4.28;;;;;;;5.35;76.04;101985.69;3553252;40;20045;-49
2021/04/14 07:23:06;;;;;;;13.35;4.32;;;;;;;5.32;74.03;101988.94;3553423;40;20077;-46
2021/04/14 07:26:02;;;;;;;16.45;5.38;;;;;;;5.42;77.31;101992.09;3552531;40;20049;-48
2021/04/14 07:28:53;;;;;;;17.05;4.05;;;;;;;5.63;74.00;101985.88;3552518;40;20054;-48
2021/04/14 07:31:41;;;;;;;12.85;4.10;;;;;;;5.42;75.69;101985.34;3551140;40;20060;-48
2021/04/14 07:34:29;;;;;;;18.58;5.13;;;;;;;6.38;72.44;101983.19;3554223;40;20054;-48
2021/04/14 07:37:35;;;;;;;13.27;5.10;;;;;;;5.99;75.58;101984.91;3554203;40;20069;-47
2021/04/14 07:40:16;;;;;;;10.55;3.97;;;;;;;6.54;69.69;101982.47;3553879;40;20434;-47
2021/04/14 07:42:51;;;;;;;10.27;4.25;;;;;;;6.60;69.85;101986.25;3553758;40;20061;-45
2021/04/14 07:45:27;;;;;;;13.20;3.65;;;;;;;6.76;70.42;101988.09;3550012;40;20050;-52
2021/04/14 07:48:19;;;;;;;13.93;4.55;;;;;;;6.81;68.86;101976.53;3553348;40;20451;-46
2021/04/14 07:50:52;;;;;;;11.23;4.10;;;;;;;6.50;69.47;101985.59;3552102;40;20105;-46
2021/04/14 07:53:35;;;;;;;15.57;3.90;;;;;;;7.15;68.15;101984.56;3553094;40;20045;-47
2021/04/14 07:56:20;;;;;;;13.05;3.85;;;;;;;6.83;67.61;101985.13;3553136;40;20335;-47
2021/04/14 07:59:06;;;;;;;14.07;4.15;;;;;;;7.30;67.58;101983.72;3555490;40;20057;-48
2021/04/14 08:01:35;;;;;;;9.80;4.07;;;;;;;7.21;66.83;101983.16;3552062;40;20488;-48
2021/04/14 08:04:17;;;;;;;13.40;4.13;;;;;;;6.98;66.96;101980.13;3552352;40;20080;-47
2021/04/14 08:06:43;;;;;;;9.48;4.00;;;;;;;7.46;66.90;101981.28;3551631;40;20081;-45
2021/04/14 08:09:15;;;;;;;18.05;4.20;;;;;;;6.96;68.12;101975.72;3552720;40;20060;-51
2021/04/14 08:11:43;;;;;;;14.48;4.10;;;;;;;7.40;66.40;101980.94;3551732;40;20051;-48
2021/04/14 08:14:36;;;;;;;14.85;4.00;;;;;;;7.35;66.64;101987.44;3552709;40;20073;-45
2021/04/14 08:17:16;;;;;;;12.65;3.55;;;;;;;6.99;66.98;101983.56;3552485;40;20508;-46
2021/04/14 08:19:43;;;;;;;14.52;4.65;;;;;;;7.42;65.49;101984.44;3553169;40;20069;-50
2021/04/14 08:22:15;;;;;;;12.32;4.15;;;;;;;7.32;65.93;101982.16;3552146;40;20046;-48
2021/04/14 08:24:49;;;;;;;13.93;3.50;;;;;;;7.69;63.63;101972.44;3551570;40;20049;-45
2021/04/14 08:27:35;;;;;;;14.32;3.28;;;;;;;7.84;63.54;101964.78;3550921;40;20443;-46
2021/04/14 08:30:02;;;;;;;9.57;3.17;;;;;;;8.08;62.37;101971.25;3552596;40;20171;-51
2021/04/14 08:32:55;;;;;;;11.57;3.80;;;;;;;7.62;63.15;101960.13;3553001;40;20394;-47
2021/04/14 08:35:43;;;;;;;9.02;3.20;;;;;;;8.37;61.19;101969.53;3550255;40;20193;-50
2021/04/14 08:38:12;;;;;;;15.30;3.92;;;;;;;7.76;62.65;101968.56;3551569;40;20082;-45
2021/04/14 08:40:51;;;;;;;9.98;4.10;;;;;;;7.93;62.53;101967.84;3551467;40;20293;-45
2021/04/14 08:43:40;;;;;;;14.75;3.60;;;;;;;7.75;63.77;101971.91;3550666;40;20054;-48
2021/04/14 08:46:15;;;;;;;11.13;3.33;;;;;;;7.53;62.60;101970.66;3553150;40;20300;-46
2021/04/14 08:48:47;;;;;;;;;;;;;;;7.93;62.77;101969.53;3551954;40;20056;-46
2021/04/14 08:51:16;;;;;;;10.35;3.75;;;;;;;7.35;63.70;101970.47;3552285;40;19952;-47
2021/04/14 08:53:45;;;;;;;16.33;4.15;;;;;;;7.68;63.14;101957.94;3551928;40;20049;-47
2021/04/14 08:56:12;;;;;;;13.00;3.42;;;;;;;7.79;62.81;101961.09;3553322;40;20061;-45
2021/04/14 08:58:39;;;;;;;12.05;3.50;;;;;;;7.76;63.47;101956.69;3551394;40;20121;-45
2021/04/14 09:01:16;;;;;;;12.93;3.80;;;;;;;7.87;63.06;101957.31;3551236;40;20362;-47
2021/04/14 09:03:45;;;;;;;12.95;2.35;;;;;;;8.34;61.55;101952.31;3549898;40;20038;-47
2021/04/14 09:06:17;;;;;;;9.88;2.65;;;;;;;8.55;60.50;101950.09;3551185;40;20060;-51
2021/04/14 09:08:48;;;;;;;9.20;2.90;;;;;;;8.64;59.50;101952.25;3551336;40;20479;-48
2021/04/14 09:11:29;;;;;;;12.85;2.50;;;;;;;9.28;56.62;101955.63;3552664;40;20333;-47
2021/04/14 09:14:02;;;;;;;10.65;2.30;;;;;;;9.79;54.95;101951.34;3551276;40;20058;-51
2021/04/14 09:16:36;;;;;;;10.18;3.08;;;;;;;8.97;56.19;101949.72;3551872;40;20041;-45
2021/04/14 09:19:08;;;;;;;9.75;3.08;;;;;;;9.30;57.22;101948.06;3552222;40;20073;-49
2021/04/14 09:21:49;;;;;;;7.93;2.42;;;;;;;9.11;56.10;101943.69;3552220;40;20078;-45
2021/04/14 09:24:31;;;;;;;10.35;3.00;;;;;;;8.84;57.18;101943.09;3552063;40;20057;-45
2021/04/14 09:27:00;;;;;;;9.35;2.55;;;;;;;9.11;54.71;101943.69;3551824;40;20050;-45
2021/04/14 09:29:44;;;;;;;9.30;2.40;;;;;;;8.43;55.37;101938.34;3554094;40;20055;-43
2021/04/14 09:32:13;;;;;;;9.35;2.60;;;;;;;9.06;54.52;101943.44;3555581;40;20073;-46
2021/04/14 09:34:43;;;;;;;7.75;3.05;;;;;;;9.01;55.51;101939.72;3554391;40;20050;-46
2021/04/14 09:37:13;;;;;;;5.35;2.33;;;;;;;8.86;53.18;101946.59;3552176;40;20149;-43
2021/04/14 09:39:55;;;;;;;10.30;2.15;;;;;;;9.75;51.59;101935.78;3553133;40;20057;-45
2021/04/14 09:42:24;;;;;;;6.05;1.85;;;;;;;9.95;48.79;101932.53;3548049;40;20068;-47
2021/04/14 09:44:58;;;;;;;7.53;1.75;;;;;;;9.62;50.31;101936.88;3551307;40;20054;-47
2021/04/14 09:47:27;;;;;;;3.90;1.80;;;;;;;10.55;49.86;101935.38;3551319;40;20045;-46
2021/04/14 09:49:57;;;;;;;5.25;1.95;;;;;;;10.22;48.13;101939.78;3552117;40;20042;-46
2021/04/14 09:52:42;;;;;;;8.73;2.17;;;;;;;11.12;47.80;101937.06;3551533;40;20388;-49
2021/04/14 09:55:34;;;;;;;10.18;3.53;;;;;;;10.43;48.20;101931.41;3552749;40;20050;-46
2021/04/14 09:58:34;;;;;;;4.95;1.70;;;;;;;10.74;45.07;101931.94;3552396;40;20758;-45
2021/04/14 10:01:33;;;;;;;7.45;1.60;;;;;;;10.57;45.11;101933.75;3552687;40;20097;-47
2021/04/14 10:04:17;;;;;;;5.30;1.48;;;;;;;9.98;45.84;101939.47;3549022;40;20337;-45
2021/04/14 10:06:45;;;;;;;5.35;2.08;;;;;;;9.42;47.93;101933.31;3553196;40;20336;-45
2021/04/14 10:09:22;;;;;;;7.45;1.55;;;;;;;8.89;49.73;101936.56;3549409;40;20415;-46
2021/04/14 10:11:48;;;;;;;8.63;1.88;;;;;;;9.50;49.69;101931.16;3550891;40;20947;-45
2021/04/14 10:14:16;;;;;;;9.40;2.35;;;;;;;8.54;52.69;101932.13;3552435;40;20337;-50
2021/04/14 10:16:45;;;;;;;10.60;2.30;;;;;;;8.22;54.46;101926.09;3552265;40;20082;-46
2021/04/14 10:19:24;;;;;;;10.45;2.00;;;;;;;9.05;51.86;101940.78;3549319;40;20058;-45
2021/04/14 10:21:50;;;;;;;6.50;1.30;;;;;;;11.19;44.84;101930.53;3550955;40;20074;-47
2021/04/14 10:24:18;;;;;;;6.82;2.45;;;;;;;10.49;44.79;101930.81;3559801;40;20078;-48
2021/04/14 10:26:51;;;;;;;10.88;2.15;;;;;;;9.89;46.83;101933.13;3552904;40;20348;-48
2021/04/14 10:29:22;;;;;;;5.93;1.92;;;;;;;9.65;48.46;101932.78;3550969;40;20064;-45
2021/04/14 10:31:48;;;;;;;5.82;1.85;;;;;;;10.27;47.30;101933.22;3553029;40;20053;-46
2021/04/14 10:34:32;;;;;;;11.68;2.92;;;;;;;9.72;47.45;101931.41;3552859;40;20058;-46
2021/04/14 10:36:59;;;;;;;8.07;2.35;;;;;;;10.00;46.35;101920.84;3553085;40;20065;-45
2021/04/14 10:39:31;;;;;;;8.40;2.00;;;;;;;10.22;45.58;101922.72;3552762;40;20050;-46
2021/04/14 10:42:10;;;;;;;7.05;2.40;;;;;;;9.97;46.30;101923.22;3553189;40;20070;-49
2021/04/14 10:44:37;;;;;;;5.70;1.80;;;;;;;10.36;46.93;101924.28;3549047;40;20049;-47
2021/04/14 10:47:09;;;;;;;7.13;2.40;;;;;;;11.01;45.78;101914.34;3552392;40;20383;-49
2021/04/14 10:49:37;;;;;;;8.75;1.83;;;;;;;10.83;44.24;101915.31;3552707;40;20660;-48
2021/04/14 10:52:12;;;;;;;7.38;1.50;;;;;;;13.73;37.06;101923.09;3553740;40;20061;-47
2021/04/14 10:54:43;;;;;;;3.50;1.60;;;;;;;12.91;39.10;101922.81;3554175;40;20584;-46
2021/04/14 10:57:18;;;;;;;6.43;1.70;;;;;;;13.36;37.68;101923.56;3552930;40;20048;-46
2021/04/14 10:59:47;;;;;;;8.70;1.42;;;;;;;13.27;38.50;101914.69;3553710;40;20045;-51
2021/04/14 11:02:26;;;;;;;4.82;1.60;;;;;;;11.64;39.92;101915.31;3553498;40;20042;-46
2021/04/14 11:04:53;;;;;;;7.10;2.03;;;;;;;11.10;40.95;101915.63;3553148;40;20050;-45
2021/04/14 11:07:24;;;;;;;3.58;1.45;;;;;;;11.41;40.36;101916.91;3552931;40;20058;-49
2021/04/14 11:09:56;;;;;;;6.47;2.42;;;;;;;10.87;41.09;101916.31;3552405;40;20062;-44
2021/04/14 11:12:25;;;;;;;6.80;1.70;;;;;;;10.74;42.27;101904.63;3551638;40;20056;-50
2021/04/14 11:14:55;;;;;;;7.57;1.83;;;;;;;10.79;43.95;101904.84;3552138;40;20046;-45
2021/04/14 11:17:31;;;;;;;10.80;2.05;;;;;;;10.29;43.08;101896.63;3552922;40;20050;-47
2021/04/14 11:20:07;;;;;;;8.27;1.70;;;;;;;9.54;47.25;101898.13;3551873;40;20061;-47
2021/04/14 11:22:45;;;;;;;6.00;1.67;;;;;;;10.43;44.70;101898.13;3551044;40;20069;-44
2021/04/14 11:25:29;;;;;;;5.30;1.40;;;;;;;15.08;36.82;101903.91;3550354;40;20424;-45
2021/04/14 11:28:03;;;;;;;4.50;1.73;;;;;;;17.45;34.24;101903.09;3551342;40;20432;-46
2021/04/14 11:30:31;;;;;;;5.85;1.95;;;;;;;15.73;33.69;101906.47;3552832;40;20057;-51
2021/04/14 11:33:01;;;;;;;5.75;1.90;;;;;;;14.56;35.26;101904.16;3552527;40;20350;-48
2021/04/14 11:35:33;;;;;;;6.95;2.53;;;;;;;13.53;36.66;101892.38;3552756;40;20050;-47
2021/04/14 11:37:59;;;;;;;8.85;2.05;;;;;;;12.37;40.63;101891.69;3551881;40;20243;-50
2021/04/14 11:40:35;;;;;;;8.48;2.75;;;;;;;11.65;41.89;101884.59;3552714;40;20094;-47
2021/04/14 11:43:05;;;;;;;5.35;1.95;;;;;;;11.91;39.61;101887.34;3552537;40;20230;-48
2021/04/14 11:45:40;;;;;;;7.88;1.70;;;;;;;11.47;39.37;101894.97;3552045;40;20124;-45
2021/04/14 11:48:28;;;;;;;5.00;1.60;;;;;;;11.99;39.82;101885.97;3553478;40;20049;-48
2021/04/14 11:50:54;;;;;;;6.25;1.77;;;;;;;13.69;37.99;101885.22;3553157;40;20054;-47